Time;durP1;ratioP1;P1;durP2;ratioP2;P2;SDS_P1;SDS_P2;PMS_P1;PMS_P2;Temp;Humidity;BMP_temperature;BMP_pressure;BME280_temperature;BME280_humidity;BME280_pressure;Samples;Min_cycle;Max_cycle;Signal;HPM_P1;HPM_P2
2022/05/27 00:00:18;;;;;;;1.27;0.73;;;20.10;99.90;;;20.15;50.62;101624.66;4991963;27;97441;-73
2022/05/27 00:02:46;;;;;;;1.53;1.10;;;20.20;99.80;;;20.20;50.51;101627.03;4996844;27;99388;-73
2022/05/27 00:05:12;;;;;;;1.60;0.93;;;20.20;99.70;;;20.22;50.48;101638.53;4991779;27;98759;-73
2022/05/27 00:07:38;;;;;;;2.97;1.00;;;20.20;99.60;;;20.23;50.67;101634.88;4982489;27;99506;-73
2022/05/27 00:10:05;;;;;;;2.43;1.00;;;20.20;99.70;;;20.04;51.03;101624.44;4997201;27;98582;-74
2022/05/27 00:12:31;;;;;;;1.27;0.93;;;20.10;99.90;;;19.80;51.32;101621.38;4997759;27;100906;-73
2022/05/27 00:14:57;;;;;;;1.50;1.00;;;19.90;99.90;;;19.58;52.09;101615.59;4971741;28;102800;-75
2022/05/27 00:17:22;;;;;;;1.43;0.97;;;19.70;99.90;;;19.30;52.77;101613.59;4976667;27;98902;-77
2022/05/27 00:19:48;;;;;;;2.10;0.90;;;19.50;99.90;;;19.22;52.82;101608.66;5000085;27;97598;-76
2022/05/27 00:22:15;;;;;;;2.10;0.83;;;19.40;99.90;;;19.51;52.26;101598.09;4997312;27;97941;-77
2022/05/27 00:24:40;;;;;;;1.13;1.00;;;19.50;99.90;;;19.58;51.90;101599.53;4997009;27;97498;-78
2022/05/27 00:27:08;;;;;;;2.07;1.13;;;19.60;99.90;;;19.55;52.17;101602.38;4993028;27;117268;-78
2022/05/27 00:29:37;;;;;;;2.50;1.13;;;19.60;99.90;;;19.70;51.76;101601.47;4999224;27;97295;-78
2022/05/27 00:32:04;;;;;;;1.23;0.87;;;19.70;99.90;;;19.65;51.84;101603.53;5001873;27;98877;-76
2022/05/27 00:34:30;;;;;;;2.40;1.37;;;19.70;99.90;;;19.84;51.36;101611.38;5002822;27;101193;-77
2022/05/27 00:36:56;;;;;;;1.53;0.87;;;19.90;99.90;;;19.73;51.71;101601.31;5004473;27;99349;-77
2022/05/27 00:39:21;;;;;;;1.90;1.20;;;19.80;99.90;;;19.78;51.41;101601.88;5002649;27;97386;-76
2022/05/27 00:41:47;;;;;;;3.17;1.10;;;19.80;99.90;;;19.90;51.12;101606.50;5002043;27;98299;-77
2022/05/27 00:44:13;;;;;;;1.43;1.00;;;19.90;99.90;;;19.80;51.44;101605.31;4996234;27;127010;-76
2022/05/27 00:46:42;;;;;;;2.60;1.10;;;19.90;99.90;;;19.61;51.76;101599.34;5001879;27;109291;-77
2022/05/27 00:49:23;;;;;;;3.27;1.20;;;19.70;99.90;;;19.44;52.38;101592.25;5015314;27;97495;-77
2022/05/27 00:52:02;;;;;;;2.23;1.10;;;19.60;99.90;;;19.32;52.46;101599.19;5001088;27;97514;-77
2022/05/27 00:54:28;;;;;;;3.43;1.50;;;19.40;99.90;;;19.40;52.35;101604.09;4998456;27;100584;-78
2022/05/27 00:57:00;;;;;;;2.13;1.10;;;19.40;99.90;;;19.33;52.85;101606.25;5000439;27;105205;-76
2022/05/27 00:59:40;;;;;;;2.13;1.10;;;19.40;99.90;;;19.31;52.64;101592.09;5013717;27;97283;-77
2022/05/27 01:02:06;;;;;;;2.53;1.30;;;19.40;99.90;;;19.49;52.29;101595.53;4981091;27;100611;-77
2022/05/27 01:04:34;;;;;;;2.27;1.00;;;19.50;99.90;;;19.64;51.79;101588.44;4984362;27;126917;-76
2022/05/27 01:07:00;;;;;;;3.77;1.87;;;19.60;99.90;;;19.43;52.59;101589.69;4999046;27;97338;-77
2022/05/27 01:09:29;;;;;;;4.97;1.63;;;19.50;99.90;;;19.36;52.84;101585.63;4995810;27;97590;-77
2022/05/27 01:12:35;;;;;;;2.63;1.50;;;19.50;99.90;;;19.56;52.24;101590.72;4985432;27;97693;-76
2022/05/27 01:15:24;;;;;;;3.80;1.10;;;19.60;99.90;;;19.77;51.54;101589.44;4999810;27;101324;-78
2022/05/27 01:20:18;;;;;;;1.80;1.53;;;19.80;99.90;;;19.55;52.31;101583.66;5001173;27;97357;-77
2022/05/27 01:21:42;;;;;;;4.10;1.33;;;19.60;99.90;;;19.65;52.11;101579.47;4998300;27;97697;-76
2022/05/27 01:24:25;;;;;;;2.00;1.80;;;19.70;99.90;;;19.88;51.48;101581.66;4996616;27;98304;-76
2022/05/27 01:27:32;;;;;;;2.80;1.50;;;19.90;99.90;;;19.99;50.76;101577.47;5014947;27;97607;-75
2022/05/27 01:30:21;;;;;;;1.60;1.50;;;20.00;99.90;;;19.80;51.45;101585.72;5008411;27;97758;-76
2022/05/27 01:33:04;;;;;;;3.83;1.93;;;19.90;99.90;;;19.66;51.90;101581.19;5016512;27;97476;-77
2022/05/27 01:36:04;;;;;;;2.03;1.10;;;19.70;99.90;;;19.31;52.86;101573.38;5019403;27;101522;-75
2022/05/27 01:38:45;;;;;;;2.37;1.33;;;19.50;99.90;;;19.25;52.78;101576.41;5016498;27;100174;-76
2022/05/27 01:41:25;;;;;;;3.80;1.43;;;19.40;99.90;;;19.26;52.88;101567.44;5012908;27;97169;-77
2022/05/27 01:44:03;;;;;;;3.93;1.57;;;19.40;99.90;;;19.32;53.10;101567.06;5019902;27;96676;-77
2022/05/27 01:46:44;;;;;;;3.33;1.70;;;19.40;99.90;;;19.21;52.98;101574.84;5000844;27;101435;-77
2022/05/27 01:49:43;;;;;;;3.23;1.73;;;19.30;99.90;;;18.87;54.30;101567.03;5046071;27;96681;-78
2022/05/27 01:52:31;;;;;;;2.73;1.77;;;19.10;99.90;;;18.88;54.25;101566.06;4991165;27;96574;-78
2022/05/27 01:55:24;;;;;;;2.90;1.73;;;19.00;99.90;;;18.97;53.82;101568.25;5027695;27;97332;-76
2022/05/27 01:58:02;;;;;;;2.13;1.50;;;19.00;99.90;;;19.16;53.40;101566.25;4981067;28;102043;-73
2022/05/27 02:00:29;;;;;;;2.60;1.70;;;19.20;99.90;;;19.26;53.28;101559.41;5009944;27;100631;-73
2022/05/27 02:03:05;;;;;;;4.63;2.17;;;19.30;99.90;;;19.39;52.88;101554.22;5019562;27;96797;-73
2022/05/27 02:05:34;;;;;;;3.50;1.80;;;19.40;99.90;;;19.48;52.47;101555.47;5029238;27;97212;-73
2022/05/27 02:08:08;;;;;;;3.30;1.87;;;19.50;99.90;;;19.45;52.59;101561.88;5010942;27;96899;-73
2022/05/27 02:11:01;;;;;;;5.20;2.47;;;19.50;99.90;;;19.59;52.29;101553.06;5023194;27;101632;-73
2022/05/27 02:14:03;;;;;;;3.37;1.73;;;19.60;99.90;;;19.51;52.50;101555.28;5007614;27;97302;-73
2022/05/27 02:16:57;;;;;;;8.27;2.17;;;19.50;99.90;;;19.60;52.04;101560.16;4996968;27;97171;-73
2022/05/27 02:19:33;;;;;;;3.40;2.17;;;19.60;99.90;;;19.54;52.25;101563.16;5011910;27;104116;-73
2022/05/27 02:22:10;;;;;;;3.37;2.40;;;19.60;99.90;;;19.46;52.39;101568.09;5015813;27;98193;-73
2022/05/27 02:24:43;;;;;;;5.93;2.90;;;19.60;99.90;;;19.39;52.79;101558.72;5028043;27;97514;-73
2022/05/27 02:27:35;;;;;;;4.90;2.07;;;19.40;99.90;;;19.58;52.15;101562.06;4999029;27;96889;-73
2022/05/27 02:30:08;;;;;;;3.43;1.70;;;19.60;99.90;;;19.65;51.98;101560.72;4999711;28;97988;-73
2022/05/27 02:35:57;;;;;;;2.53;2.33;;;19.60;99.90;;;19.38;52.64;101548.94;5005964;27;97090;-73
2022/05/27 02:38:23;;;;;;;4.43;2.50;;;19.50;99.90;;;19.57;52.07;101557.66;4997967;27;99945;-73
2022/05/27 02:41:03;;;;;;;3.03;2.20;;;19.60;99.90;;;19.78;51.51;101555.50;5026175;27;102109;-73
2022/05/27 02:43:56;;;;;;;5.47;2.10;;;19.80;99.90;;;19.68;52.05;101555.22;5014847;27;99848;-73
2022/05/27 02:46:51;;;;;;;3.80;2.10;;;19.80;99.90;;;19.54;52.32;101566.75;5005518;27;96807;-73
2022/05/27 02:49:49;;;;;;;4.07;1.83;;;19.60;99.90;;;19.48;52.80;101560.84;5010934;27;96879;-73
2022/05/27 02:52:42;;;;;;;5.20;2.10;;;19.60;99.90;;;19.38;53.06;101565.84;5020189;27;97017;-73
2022/05/27 02:55:16;;;;;;;3.47;1.83;;;19.50;99.90;;;19.32;53.42;101560.88;5016312;27;98213;-73
2022/05/27 02:57:54;;;;;;;3.40;2.17;;;19.40;99.90;;;19.31;53.23;101554.66;4999101;27;97777;-73
2022/05/27 03:00:25;;;;;;;5.90;2.40;;;19.30;99.90;;;19.19;54.31;101552.69;4983659;27;97156;-73
2022/05/27 03:02:52;;;;;;;3.37;1.80;;;19.20;99.90;;;19.36;53.62;101551.69;5012967;27;102802;-73
2022/05/27 03:05:22;;;;;;;4.23;1.77;;;19.40;99.90;;;19.48;53.04;101560.84;5018910;27;97739;-73
2022/05/27 03:07:59;;;;;;;2.10;1.43;;;19.50;99.90;;;19.57;52.92;101549.63;5018351;27;96778;-73
2022/05/27 03:11:04;;;;;;;3.80;2.03;;;19.60;99.90;;;19.59;53.22;101553.06;5022685;27;97062;-73
2022/05/27 03:14:03;;;;;;;3.60;2.33;;;19.70;99.90;;;19.75;52.15;101550.34;4994338;28;101724;-73
2022/05/27 03:17:01;;;;;;;2.90;1.70;;;19.70;99.90;;;19.70;52.20;101550.63;5013050;27;101369;-73
2022/05/27 03:19:59;;;;;;;4.13;2.27;;;19.70;99.90;;;19.80;52.16;101550.91;5015278;27;97660;-73
2022/05/27 03:23:02;;;;;;;3.03;1.77;;;19.80;99.90;;;19.62;52.89;101542.19;4996822;27;98050;-73
2022/05/27 03:25:49;;;;;;;4.40;2.00;;;19.80;99.90;;;19.50;53.63;101546.41;5021063;27;96986;-73
2022/05/27 03:28:52;;;;;;;4.97;2.20;;;19.60;99.90;;;19.54;53.01;101552.47;5013645;27;97076;-73
2022/05/27 03:31:46;;;;;;;4.57;2.27;;;19.50;99.90;;;19.57;52.86;101538.94;5013971;27;97002;-73
2022/05/27 03:34:49;;;;;;;2.93;1.80;;;19.60;99.90;;;19.32;54.18;101540.31;5016518;27;97205;-73
2022/05/27 03:37:40;;;;;;;3.17;2.00;;;19.40;99.90;;;19.18;54.29;101542.94;5015778;27;97288;-73
2022/05/27 03:40:32;;;;;;;4.83;2.53;;;19.30;99.90;;;19.12;54.74;101537.97;5012909;27;97314;-73
2022/05/27 03:42:58;;;;;;;6.37;2.30;;;19.20;99.90;;;19.19;54.93;101544.66;5020913;27;97207;-73
2022/05/27 03:45:24;;;;;;;3.63;2.33;;;19.30;99.90;;;18.99;54.73;101548.50;5024345;27;109424;-73
2022/05/27 03:47:51;;;;;;;4.63;2.63;;;19.00;99.90;;;19.06;54.98;101548.97;5020488;27;97320;-73
2022/05/27 03:50:24;;;;;;;2.63;2.03;;;19.10;99.90;;;19.31;53.47;101543.97;5013117;27;97434;-73
2022/05/27 03:52:54;;;;;;;2.30;1.77;;;19.30;99.90;;;19.21;54.41;101548.09;5003249;27;97289;-73
2022/05/27 03:55:26;;;;;;;3.07;2.30;;;19.30;99.90;;;19.19;54.35;101541.13;5027290;27;96835;-73
2022/05/27 03:57:52;;;;;;;2.90;2.00;;;19.20;99.90;;;19.42;53.97;101545.16;5016223;27;98134;-73
2022/05/27 04:00:19;;;;;;;6.03;2.30;;;19.40;99.90;;;19.60;52.92;101547.63;5000674;27;97485;-73
2022/05/27 04:02:45;;;;;;;4.03;2.00;;;19.60;99.90;;;19.61;52.87;101545.81;5002235;27;96767;-73
2022/05/27 04:05:16;;;;;;;2.40;2.10;;;19.60;99.90;;;19.69;52.54;101542.69;5022181;27;97248;-72
2022/05/27 04:07:42;;;;;;;2.80;2.50;;;19.70;99.90;;;19.67;52.85;101544.56;5003760;28;98296;-72
2022/05/27 04:10:09;;;;;;;2.27;1.73;;;19.70;99.90;;;19.73;52.94;101539.72;5018995;27;99537;-72
2022/05/27 04:12:36;;;;;;;1.97;1.67;;;19.80;99.90;;;19.54;53.71;101544.44;5026198;27;97568;-72
2022/05/27 04:15:03;;;;;;;4.03;2.20;;;19.60;99.90;;;19.59;52.90;101543.22;5020464;27;97124;-72
2022/05/27 04:17:30;;;;;;;3.53;2.57;;;19.60;99.90;;;19.77;52.35;101541.25;5018727;27;100184;-72
2022/05/27 04:20:05;;;;;;;2.30;2.10;;;19.70;99.90;;;19.81;52.00;101529.41;5022658;27;97616;-76
2022/05/27 04:22:32;;;;;;;2.57;1.70;;;19.80;99.90;;;19.81;52.45;101540.13;5016841;27;97068;-78
2022/05/27 04:24:58;;;;;;;2.40;1.80;;;19.80;99.90;;;19.89;52.31;101543.22;5034391;27;97233;-76
2022/05/27 04:27:25;;;;;;;2.80;1.93;;;19.80;99.90;;;19.96;52.28;101545.50;5031557;27;99501;-73
2022/05/27 04:29:52;;;;;;;2.70;1.50;;;19.90;99.90;;;20.02;51.87;101545.13;5054365;27;97423;-73
2022/05/27 04:32:21;;;;;;;2.73;1.93;;;20.00;99.90;;;20.07;51.87;101551.06;5036589;27;96582;-73
2022/05/27 04:34:49;;;;;;;2.77;2.03;;;20.00;99.90;;;20.03;51.71;101542.38;5059932;27;96866;-72
2022/05/27 04:37:15;;;;;;;2.23;2.10;;;20.00;99.90;;;20.00;52.36;101547.06;5026922;27;97734;-73
2022/05/27 04:39:41;;;;;;;4.17;2.77;;;20.00;99.90;;;20.09;51.62;101547.34;5016920;27;97014;-73
2022/05/27 04:42:07;;;;;;;2.87;1.93;;;20.10;99.90;;;20.16;51.34;101542.47;5017293;27;120451;-73
2022/05/27 04:44:33;;;;;;;3.57;2.57;;;20.10;99.90;;;20.21;51.09;101545.72;5021836;27;97202;-72
2022/05/27 04:46:59;;;;;;;4.10;2.47;;;20.20;99.90;;;20.23;51.16;101543.81;5038437;27;97335;-73
2022/05/27 04:52:10;;;;;;;2.53;2.30;;;20.30;99.90;;;20.16;51.49;101547.84;5012385;27;97034;-73
2022/05/27 04:54:36;;;;;;;5.27;2.77;;;20.20;99.90;;;20.17;51.54;101545.06;5019137;27;97140;-73
2022/05/27 04:57:02;;;;;;;4.17;2.97;;;20.20;99.90;;;19.89;52.52;101550.38;5017365;27;97749;-73
2022/05/27 04:59:27;;;;;;;2.53;2.23;;;20.00;99.90;;;19.95;52.30;101544.63;5016046;27;97479;-73
2022/05/27 05:01:53;;;;;;;2.40;2.20;;;20.00;99.90;;;19.81;54.92;101541.94;5020294;27;99388;-73
2022/05/27 05:04:19;;;;;;;3.90;2.67;;;19.90;99.90;;;19.84;52.71;101541.78;5032991;27;98691;-73
2022/05/27 05:06:45;;;;;;;4.83;3.00;;;19.80;99.90;;;19.94;52.18;101547.41;5020278;27;110717;-73
2022/05/27 05:09:11;;;;;;;2.27;1.93;;;19.90;99.90;;;19.82;53.05;101549.91;5016878;27;98452;-73
2022/05/27 05:11:38;;;;;;;4.63;3.27;;;19.80;99.90;;;19.94;52.24;101552.75;5019984;27;97091;-73
2022/05/27 05:14:04;;;;;;;3.83;3.40;;;19.90;99.90;;;19.92;53.01;101551.03;5020377;27;98034;-75
2022/05/27 05:16:30;;;;;;;4.47;2.80;;;19.90;99.90;;;19.97;52.39;101547.25;5019159;27;102215;-73
2022/05/27 05:18:56;;;;;;;3.43;2.60;;;19.90;99.90;;;20.01;52.25;101554.13;5019614;27;98140;-73
2022/05/27 05:21:21;;;;;;;5.47;4.00;;;19.90;99.90;;;20.04;52.62;101552.13;5018778;27;97428;-73
2022/05/27 05:23:47;;;;;;;4.53;2.27;;;20.00;99.90;;;20.00;52.99;101547.06;5014030;28;110824;-73
2022/05/27 05:26:13;;;;;;;4.70;2.63;;;19.90;99.90;;;20.01;53.10;101559.50;5003696;27;98910;-73
2022/05/27 05:28:39;;;;;;;3.83;2.50;;;20.00;99.90;;;20.05;52.18;101550.31;5016386;27;123814;-73
2022/05/27 05:31:06;;;;;;;3.77;2.80;;;20.00;99.90;;;20.08;51.98;101560.81;5029304;27;96811;-74
2022/05/27 05:33:33;;;;;;;2.70;2.30;;;20.00;99.90;;;20.00;54.17;101563.13;5027342;27;96897;-73
2022/05/27 05:35:59;;;;;;;3.70;2.30;;;20.00;99.90;;;19.95;52.16;101565.19;5026617;27;96762;-73
2022/05/27 05:38:26;;;;;;;3.50;3.10;;;19.90;99.90;;;20.05;52.38;101579.75;5023541;27;98555;-73
2022/05/27 05:40:52;;;;;;;2.20;1.30;;;20.00;99.90;;;20.11;51.88;101580.25;5009878;27;97196;-73
2022/05/27 05:43:18;;;;;;;2.43;1.27;;;20.10;99.90;;;20.13;51.85;101577.50;5016056;27;115776;-73
2022/05/27 05:45:44;;;;;;;6.23;4.00;;;20.00;99.90;;;20.07;56.04;101577.84;5018796;27;119231;-73
2022/05/27 05:48:09;;;;;;;2.20;1.70;;;20.00;99.90;;;19.93;53.38;101581.34;5015414;27;98812;-73
2022/05/27 05:50:36;;;;;;;3.60;1.80;;;19.60;99.90;;;19.85;53.91;101579.16;5018458;27;96796;-73
2022/05/27 05:53:01;;;;;;;2.17;1.37;;;19.50;99.90;;;19.77;52.85;101578.75;5014099;27;97572;-73
2022/05/27 05:55:27;;;;;;;1.63;1.20;;;19.30;99.90;;;19.74;53.06;101588.78;5024435;27;98590;-73
2022/05/27 05:57:53;;;;;;;1.67;1.03;;;19.40;99.90;;;19.77;53.02;101593.94;5009974;27;121525;-73
2022/05/27 06:00:25;;;;;;;1.43;1.10;;;19.40;99.90;;;19.74;53.25;101595.00;5013656;27;116866;-73
2022/05/27 06:02:52;;;;;;;1.20;1.00;;;19.40;99.90;;;19.70;53.15;101598.81;5019821;27;97087;-73
2022/05/27 06:05:18;;;;;;;3.80;1.37;;;19.30;99.90;;;19.61;55.43;101600.19;5009205;27;99759;-73
2022/05/27 06:07:45;;;;;;;1.80;1.23;;;19.20;99.90;;;19.60;53.22;101597.63;5022102;27;97012;-73
2022/05/27 06:10:14;;;;;;;2.13;1.20;;;19.20;99.90;;;19.60;53.71;101603.84;5015301;27;96929;-73
2022/05/27 06:12:40;;;;;;;2.20;1.23;;;19.20;99.90;;;19.60;53.69;101611.00;5018747;27;97698;-73
2022/05/27 06:15:11;;;;;;;2.63;1.30;;;19.20;99.90;;;19.62;53.28;101611.75;5015318;27;97550;-73
2022/05/27 06:17:37;;;;;;;2.67;1.10;;;19.30;99.90;;;19.58;56.02;101604.88;5020110;27;98220;-73
2022/05/27 06:20:06;;;;;;;3.10;1.50;;;19.20;99.90;;;19.56;56.42;101606.78;5033858;27;96863;-74
2022/05/27 06:22:32;;;;;;;1.80;1.50;;;19.20;99.90;;;19.43;54.22;101611.09;5023177;27;96599;-73
2022/05/27 06:24:59;;;;;;;3.27;1.50;;;19.00;99.90;;;19.40;55.10;101611.28;5024174;27;97365;-73
2022/05/27 06:27:25;;;;;;;3.23;1.40;;;18.90;99.90;;;19.37;56.88;101616.75;4998749;27;96784;-76
2022/05/27 06:35:20;;;;;;;4.33;1.50;;;18.70;99.90;;;19.14;57.82;101626.13;5011255;27;97435;-76
2022/05/27 06:37:45;;;;;;;4.27;1.90;;;18.60;99.90;;;19.11;58.46;101631.66;5015253;27;123142;-75
2022/05/27 06:40:12;;;;;;;4.70;1.70;;;18.60;99.90;;;19.12;57.58;101636.91;5015245;27;116354;-76
2022/05/27 06:42:38;;;;;;;6.20;1.70;;;18.60;99.90;;;19.15;56.46;101628.69;5017278;27;117915;-75
2022/05/27 06:45:07;;;;;;;3.27;1.30;;;18.70;99.90;;;19.21;55.25;101627.47;5012767;27;98553;-76
2022/05/27 06:47:32;;;;;;;3.33;1.60;;;18.80;99.90;;;19.11;57.00;101621.81;5028333;27;99626;-76
2022/05/27 06:49:58;;;;;;;4.20;1.70;;;18.70;99.90;;;18.98;57.98;101632.31;5013528;27;102853;-76
2022/05/27 06:52:24;;;;;;;4.67;1.20;;;18.50;99.90;;;19.09;55.80;101623.69;5012010;27;102749;-77
2022/05/27 06:54:51;;;;;;;1.63;1.23;;;18.60;99.90;;;19.11;55.81;101631.66;5012232;27;98383;-76
2022/05/27 06:57:17;;;;;;;7.07;2.10;;;18.70;99.90;;;19.05;58.61;101627.47;5012268;27;97374;-76
2022/05/27 06:59:43;;;;;;;4.60;1.67;;;18.70;99.90;;;18.98;57.26;101632.31;5030436;27;108776;-75
2022/05/27 07:02:09;;;;;;;5.07;1.87;;;18.50;99.90;;;18.98;56.33;101634.13;4997489;27;103763;-77
2022/05/27 07:04:35;;;;;;;1.87;1.27;;;18.50;99.90;;;19.09;55.17;101634.38;5009260;27;98764;-77
2022/05/27 07:07:06;;;;;;;4.23;1.67;;;18.70;99.90;;;19.16;54.83;101635.78;5008108;28;98391;-76
2022/05/27 07:09:36;;;;;;;3.70;1.50;;;18.80;99.90;;;19.28;54.58;101634.22;5011273;27;96981;-76
2022/05/27 07:12:09;;;;;;;4.73;1.80;;;19.00;99.90;;;19.39;53.66;101642.50;5009450;27;97264;-76
2022/05/27 07:14:36;;;;;;;5.60;2.10;;;19.20;99.90;;;19.35;54.42;101656.13;5022631;27;102757;-77
2022/05/27 07:17:02;;;;;;;5.33;1.57;;;19.10;99.90;;;19.42;54.14;101646.81;5016574;27;97341;-76
2022/05/27 07:19:29;;;;;;;4.70;2.10;;;19.10;99.90;;;19.46;54.24;101648.38;5019445;27;96983;-76
2022/05/27 07:21:56;;;;;;;5.37;2.07;;;19.20;99.90;;;19.48;54.16;101658.03;5013821;27;97343;-76
2022/05/27 07:24:22;;;;;;;4.93;1.87;;;19.30;99.90;;;19.54;53.71;101656.81;4995253;27;98144;-75
2022/05/27 07:26:48;;;;;;;4.33;1.70;;;19.30;99.90;;;19.61;53.80;101652.88;5027647;27;99699;-76
2022/05/27 07:29:14;;;;;;;6.73;2.20;;;19.50;99.90;;;19.68;53.28;101648.03;5014601;27;98839;-75
2022/05/27 07:31:43;;;;;;;4.00;1.60;;;19.50;99.90;;;19.73;53.05;101629.88;5027498;27;96734;-76
2022/05/27 07:34:10;;;;;;;7.40;1.93;;;19.60;99.90;;;19.79;52.96;101641.06;5020241;27;99532;-75
2022/05/27 07:36:36;;;;;;;5.43;2.40;;;19.70;99.90;;;19.84;52.81;101632.78;5020836;27;97546;-77
2022/05/27 07:39:04;;;;;;;4.67;2.30;;;19.70;99.90;;;19.90;52.64;101627.94;5020557;27;97151;-77
2022/05/27 07:41:30;;;;;;;5.33;2.33;;;19.80;99.90;;;19.82;54.07;101624.84;5006666;27;97244;-75
2022/05/27 07:43:59;;;;;;;3.87;1.97;;;19.60;99.90;;;19.83;53.00;101623.91;5012856;27;98668;-76
2022/05/27 07:46:25;;;;;;;7.43;2.03;;;19.60;99.90;;;19.85;52.90;101635.38;5017969;27;97900;-76
2022/05/27 07:48:51;;;;;;;6.73;1.70;;;19.60;99.90;;;19.91;52.68;101635.00;5013398;27;113735;-77
2022/05/27 07:51:18;;;;;;;6.33;2.00;;;19.70;99.90;;;19.89;52.73;101638.72;5030993;27;96770;-77
2022/05/27 07:53:43;;;;;;;3.97;1.80;;;19.70;99.90;;;19.91;52.54;101643.03;5039850;27;97535;-77
2022/05/27 07:56:11;;;;;;;5.83;1.83;;;19.80;99.90;;;19.96;52.60;101641.91;5050529;27;121392;-77
2022/05/27 07:58:36;;;;;;;4.57;1.97;;;19.80;99.90;;;19.97;52.52;101646.31;5037075;27;110903;-77
2022/05/27 08:01:02;;;;;;;4.63;1.97;;;19.80;99.90;;;20.01;52.40;101653.22;5040987;27;96933;-77
2022/05/27 08:03:28;;;;;;;7.27;2.10;;;19.90;99.90;;;20.00;52.34;101646.13;5014027;27;99144;-75
2022/05/27 08:05:55;;;;;;;4.07;1.40;;;19.80;99.90;;;20.02;52.17;101646.91;5017547;27;98086;-76
2022/05/27 08:08:23;;;;;;;4.40;2.20;;;19.90;99.90;;;20.01;52.60;101640.69;4991901;27;97208;-76
2022/05/27 08:10:49;;;;;;;6.37;2.27;;;19.80;99.90;;;20.02;52.34;101636.19;5015011;27;97457;-75
2022/05/27 08:13:15;;;;;;;5.63;2.67;;;19.80;99.90;;;19.97;52.66;101646.31;5026441;27;97601;-75
2022/05/27 08:15:41;;;;;;;5.63;3.00;;;19.80;99.90;;;20.00;52.54;101644.31;5016324;27;97344;-76
2022/05/27 08:18:07;;;;;;;5.73;3.00;;;19.80;99.90;;;19.99;52.60;101641.75;4992463;27;97359;-75
2022/05/27 08:20:36;;;;;;;2.10;0.90;;;19.80;99.90;;;19.99;52.30;101653.31;5017865;27;97133;-73
2022/05/27 08:23:02;;;;;;;4.97;3.30;;;19.80;99.90;;;19.98;53.41;101642.69;5015943;27;97400;-73
2022/05/27 08:25:29;;;;;;;10.20;4.27;;;19.80;99.90;;;19.91;53.86;101643.03;5004202;27;97049;-74
2022/05/27 08:27:56;;;;;;;6.37;3.47;;;19.60;99.90;;;19.81;53.37;101652.56;4999288;27;98614;-75
2022/05/27 08:30:29;;;;;;;6.63;3.10;;;19.50;99.90;;;19.89;53.20;101652.97;4991816;27;97912;-73
2022/05/27 08:32:56;;;;;;;8.03;4.17;;;19.60;99.90;;;19.96;53.16;101657.97;4997108;27;98456;-72
2022/05/27 08:38:13;;;;;;;8.10;3.23;;;19.80;99.90;;;20.06;52.38;101664.50;4996052;27;97448;-72
2022/05/27 08:41:16;;;;;;;5.63;2.83;;;19.90;99.90;;;20.00;52.67;101660.38;5000080;27;102535;-72
2022/05/27 08:44:13;;;;;;;7.00;3.50;;;19.90;99.90;;;20.08;52.60;101662.59;4997249;27;104648;-73
2022/05/27 08:47:12;;;;;;;8.10;4.20;;;20.00;99.90;;;20.08;52.92;101659.91;4997508;27;103433;-73
2022/05/27 08:49:55;;;;;;;4.20;2.03;;;19.90;99.90;;;20.04;53.17;101659.25;4996379;27;97894;-73
2022/05/27 08:52:37;;;;;;;7.57;3.60;;;19.80;99.90;;;20.00;52.90;101649.69;4996351;27;96992;-73
2022/05/27 09:01:51;;;;;;;5.03;3.80;;;19.90;99.90;;;20.08;52.46;101657.25;4996697;27;96993;-73
2022/05/27 09:04:40;;;;;;;5.90;3.70;;;20.00;99.90;;;20.13;52.98;101650.66;4998997;27;98382;-73
2022/05/27 09:07:21;;;;;;;5.23;3.10;;;20.10;99.90;;;20.17;52.94;101654.03;4996519;27;97447;-73
2022/05/27 09:09:47;;;;;;;3.13;1.43;;;20.10;99.90;;;20.18;52.28;101648.56;5001827;27;98964;-73
2022/05/27 09:12:40;;;;;;;6.53;4.37;;;20.10;99.90;;;20.20;56.08;101640.44;4998185;27;98889;-73
2022/05/27 09:15:15;;;;;;;7.03;3.97;;;20.10;99.90;;;20.12;52.76;101640.91;5003796;27;98302;-73
2022/05/27 09:18:14;;;;;;;8.00;3.07;;;20.00;99.90;;;20.19;53.04;101641.38;5008818;27;99267;-73
2022/05/27 09:21:20;;;;;;;4.00;2.47;;;20.00;99.90;;;20.14;52.71;101646.19;5000333;27;101014;-73
2022/05/27 09:24:22;;;;;;;6.97;3.90;;;20.00;99.90;;;20.09;52.54;101642.88;4999172;27;101400;-73
2022/05/27 09:27:08;;;;;;;5.70;2.87;;;19.90;99.90;;;20.19;52.44;101636.03;4997425;27;97994;-72
2022/05/27 09:29:56;;;;;;;5.97;2.77;;;20.10;99.90;;;20.25;53.68;101637.47;4996907;27;104214;-72
2022/05/27 09:32:52;;;;;;;7.63;4.50;;;20.10;99.90;;;20.25;52.99;101627.63;4998183;27;97830;-72
2022/05/27 09:35:37;;;;;;;6.47;4.90;;;20.10;99.90;;;20.23;53.20;101624.16;4997706;27;99251;-72
2022/05/27 09:38:06;;;;;;;8.13;4.10;;;20.10;99.90;;;20.14;53.11;101632.78;5004043;27;97558;-72
2022/05/27 09:40:55;;;;;;;8.37;3.77;;;20.10;99.90;;;20.19;52.40;101633.34;4996616;27;110870;-72
2022/05/27 09:43:30;;;;;;;7.63;4.97;;;20.10;99.90;;;20.25;52.60;101638.31;4996569;27;96973;-72
2022/05/27 09:46:04;;;;;;;7.30;4.93;;;20.20;99.90;;;20.14;52.49;101643.50;5002397;27;98168;-72
2022/05/27 09:48:29;;;;;;;7.83;4.23;;;20.10;99.90;;;20.23;52.29;101637.56;5015261;27;97138;-72
2022/05/27 09:51:04;;;;;;;7.27;5.10;;;20.20;99.90;;;20.14;52.26;101633.66;5019651;27;113191;-72
2022/05/27 09:53:42;;;;;;;6.37;3.47;;;20.10;99.90;;;20.03;52.43;101627.19;5017399;27;101214;-72
2022/05/27 09:56:12;;;;;;;5.70;3.20;;;20.00;99.90;;;19.84;52.38;101624.75;5017929;27;97429;-72
2022/05/27 09:58:44;;;;;;;6.40;3.60;;;19.90;99.90;;;19.72;51.03;101629.03;5023779;27;99684;-72
2022/05/27 10:01:22;;;;;;;4.73;3.10;;;19.80;99.90;;;19.78;51.59;101623.28;5024603;27;99752;-72
2022/05/27 10:04:04;;;;;;;5.90;3.70;;;19.80;99.90;;;19.83;52.48;101617.69;5009174;27;97804;-72
2022/05/27 10:06:34;;;;;;;4.53;2.37;;;19.80;99.90;;;19.75;51.46;101612.78;5006199;27;98306;-72
2022/05/27 10:09:04;;;;;;;6.67;2.73;;;19.80;99.90;;;19.86;52.27;101615.69;5001700;27;99195;-72
2022/05/27 10:11:38;;;;;;;5.37;3.20;;;19.90;99.90;;;19.67;50.55;101612.34;4996415;27;103529;-72
2022/05/27 10:14:10;;;;;;;4.70;2.80;;;19.80;99.90;;;19.43;51.39;101611.09;4999541;27;98522;-72
2022/05/27 10:16:39;;;;;;;8.53;3.03;;;19.60;99.90;;;19.75;52.62;101612.78;4997315;27;97661;-72
2022/05/27 10:19:14;;;;;;;4.97;2.77;;;19.80;99.90;;;19.85;52.20;101608.59;4996788;27;96924;-74
2022/05/27 10:21:51;;;;;;;5.43;2.57;;;19.90;99.90;;;19.81;50.89;101612.41;4998571;27;100568;-72
2022/05/27 10:24:29;;;;;;;4.63;2.53;;;19.90;99.90;;;19.83;50.76;101597.13;4995912;27;98691;-72
2022/05/27 10:27:20;;;;;;;4.07;2.40;;;19.90;99.90;;;19.88;52.06;101619.13;4998802;27;98278;-79
2022/05/27 10:29:58;;;;;;;6.13;3.10;;;20.00;99.90;;;19.75;49.50;101607.41;4983867;27;97148;-75
2022/05/27 10:32:40;;;;;;;3.87;2.40;;;19.90;99.40;;;19.68;50.67;101605.22;4992052;27;98257;-75
2022/05/27 10:35:17;;;;;;;5.70;2.60;;;19.80;99.80;;;19.67;50.68;101593.59;4994975;27;99623;-75
2022/05/27 10:38:28;;;;;;;3.60;2.60;;;19.80;99.90;;;19.75;51.67;101596.72;4997695;27;97496;-75
2022/05/27 10:41:29;;;;;;;4.70;2.60;;;19.90;99.90;;;19.86;50.02;101594.25;5027694;27;97958;-75
2022/05/27 10:44:20;;;;;;;4.57;2.57;;;20.00;99.70;;;19.92;50.85;101588.53;4993762;27;102302;-75
2022/05/27 10:46:58;;;;;;;4.83;2.30;;;20.10;99.90;;;19.89;49.29;101591.41;4979327;28;99908;-74
2022/05/27 10:50:06;;;;;;;5.00;2.50;;;20.00;99.90;;;19.73;47.39;101603.13;4994023;27;97570;-75
2022/05/27 10:53:07;;;;;;;4.50;2.43;;;19.90;97.40;;;19.65;45.93;101589.31;4995291;27;97178;-75
2022/05/27 10:56:00;;;;;;;5.07;2.73;;;19.80;96.60;;;19.70;48.06;101588.09;4994902;27;104968;-75
2022/05/27 11:02:46;;;;;;;5.17;2.50;;;19.90;98.90;;;19.86;49.00;101604.97;5007165;27;97602;-75
2022/05/27 11:05:14;;;;;;;4.03;2.07;;;19.90;99.40;;;19.85;50.90;101605.94;4988351;27;96859;-75